createdAt,value
2018-12-24T00:00:41.299Z,6.60
2018-12-24T00:03:20.713Z,6.60
2018-12-24T00:06:21.057Z,6.60
2018-12-24T00:09:04.092Z,6.70
2018-12-24T00:11:43.760Z,6.70
2018-12-24T00:14:43.199Z,6.70
2018-12-24T00:17:23.288Z,6.70
2018-12-24T00:20:09.405Z,6.70
2018-12-24T00:22:48.853Z,6.70
2018-12-24T00:25:29.084Z,6.70
2018-12-24T00:28:29.257Z,6.70
2018-12-24T00:31:09.356Z,6.70
2018-12-24T00:33:48.692Z,6.70
2018-12-24T00:36:28.150Z,6.80
2018-12-24T00:39:07.714Z,6.80
2018-12-24T00:42:15.684Z,6.80
2018-12-24T00:44:48.608Z,6.80
2018-12-24T00:47:28.862Z,6.80
2018-12-24T00:50:08.142Z,6.80
2018-12-24T00:52:47.673Z,6.80
2018-12-24T00:55:47.925Z,6.80
2018-12-24T00:58:30.353Z,6.80
2018-12-24T01:01:29.785Z,6.80
2018-12-24T01:04:09.201Z,6.80
2018-12-24T01:06:49.069Z,6.80
2018-12-24T01:09:35.237Z,6.80
2018-12-24T01:12:14.700Z,6.80
2018-12-24T01:15:14.249Z,6.80
2018-12-24T01:17:53.771Z,6.80
2018-12-24T01:20:31.237Z,6.80
2018-12-24T01:23:17.510Z,6.70
2018-12-24T01:25:57.447Z,6.70
2018-12-24T01:28:37.026Z,6.70
2018-12-24T01:31:19.389Z,6.70
2018-12-24T01:34:01.837Z,6.70
2018-12-24T01:37:01.220Z,6.80
2018-12-24T01:40:00.525Z,6.80
2018-12-24T01:42:43.877Z,6.80
2018-12-24T01:45:23.168Z,6.80
2018-12-24T01:48:02.518Z,6.80
2018-12-24T01:50:44.773Z,6.80
2018-12-24T01:53:24.933Z,6.80
2018-12-24T01:56:38.597Z,6.70
2018-12-24T01:59:18.697Z,6.80
2018-12-24T02:01:58.701Z,6.80
2018-12-24T02:04:40.827Z,6.80
2018-12-24T02:07:20.672Z,6.80
2018-12-24T02:10:00.645Z,6.80
2018-12-24T02:12:42.667Z,6.70
2018-12-24T02:15:22.479Z,6.80
2018-12-24T02:18:01.717Z,6.80
2018-12-24T02:20:41.560Z,6.80
2018-12-24T02:23:23.617Z,6.90
2018-12-24T02:26:03.478Z,6.80
2018-12-24T02:28:43.263Z,6.80
2018-12-24T02:31:23.093Z,6.80
2018-12-24T02:34:03.104Z,6.80
2018-12-24T02:36:44.945Z,6.80
2018-12-24T02:39:26.981Z,6.80
2018-12-24T02:42:07.020Z,6.70
2018-12-24T02:44:46.929Z,6.70
2018-12-24T02:47:28.855Z,6.70
2018-12-24T02:50:08.876Z,6.70
2018-12-24T02:52:48.672Z,6.70
2018-12-24T02:55:30.473Z,6.70
2018-12-24T02:58:10.290Z,6.70
2018-12-24T03:00:50.414Z,6.80
2018-12-24T03:03:30.172Z,6.70
2018-12-24T03:06:09.351Z,6.70
2018-12-24T03:08:49.313Z,6.70
2018-12-24T03:11:29.379Z,6.70
2018-12-24T03:14:09.310Z,6.70
2018-12-24T03:16:49.208Z,6.70
2018-12-24T03:19:28.880Z,6.70
2018-12-24T03:22:10.534Z,6.70
2018-12-24T03:24:50.389Z,6.70
2018-12-24T03:27:30.440Z,6.60
2018-12-24T03:30:10.351Z,6.60
2018-12-24T03:32:50.288Z,6.60
2018-12-24T03:35:50.143Z,6.70
2018-12-24T03:38:30.052Z,6.60
2018-12-24T03:41:11.772Z,6.60
2018-12-24T03:43:51.774Z,6.70
2018-12-24T03:46:31.648Z,6.60
2018-12-24T03:49:13.525Z,6.70
2018-12-24T03:51:53.564Z,6.70
2018-12-24T03:54:33.380Z,6.70
2018-12-24T03:57:15.254Z,6.70
2018-12-24T03:59:55.156Z,6.70
2018-12-24T04:02:37.184Z,6.70
2018-12-24T04:05:16.382Z,6.60
2018-12-24T04:07:58.190Z,6.60
2018-12-24T04:10:38.407Z,6.60
2018-12-24T04:13:22.731Z,6.50
2018-12-24T04:16:00.114Z,6.50
2018-12-24T04:18:40.066Z,6.50
2018-12-24T04:21:22.690Z,6.50
2018-12-24T04:24:04.805Z,6.40
2018-12-24T04:26:44.732Z,6.30
2018-12-24T04:29:24.632Z,6.30
2018-12-24T04:32:04.760Z,6.20
2018-12-24T04:34:44.837Z,6.20
2018-12-24T04:37:24.724Z,6.20
2018-12-24T04:40:04.947Z,6.10
2018-12-24T04:42:46.783Z,6.10
2018-12-24T04:45:26.100Z,6.00
2018-12-24T04:48:06.001Z,6.00
2018-12-24T04:50:45.901Z,5.90
2018-12-24T04:53:25.866Z,5.80
2018-12-24T04:56:03.139Z,5.80
2018-12-24T04:58:49.273Z,5.70
2018-12-24T05:01:48.885Z,5.70
2018-12-24T05:04:28.597Z,5.70
2018-12-24T05:07:08.629Z,5.60
2018-12-24T05:09:48.559Z,5.60
2018-12-24T05:12:30.409Z,5.60
2018-12-24T05:15:10.325Z,5.60
2018-12-24T05:17:50.134Z,5.50
2018-12-24T05:20:30.194Z,5.50
2018-12-24T05:23:10.004Z,5.40
2018-12-24T05:25:55.942Z,5.40
2018-12-24T05:28:35.847Z,5.40
2018-12-24T05:31:15.666Z,5.40
2018-12-24T05:33:57.775Z,5.40
2018-12-24T05:36:39.605Z,5.40
2018-12-24T05:39:19.636Z,5.40
2018-12-24T05:41:59.551Z,5.30
2018-12-24T05:44:39.528Z,5.30
2018-12-24T05:47:19.728Z,5.20
2018-12-24T05:49:59.496Z,5.10
2018-12-24T05:52:39.386Z,5.10
2018-12-24T05:55:19.337Z,5.00
2018-12-24T05:57:59.414Z,5.00
2018-12-24T06:00:39.343Z,5.00
2018-12-24T06:03:19.286Z,4.90
2018-12-24T06:05:59.272Z,4.90
2018-12-24T06:08:36.479Z,4.90
2018-12-24T06:11:25.189Z,4.80
2018-12-24T06:14:04.607Z,4.80
2018-12-24T06:16:44.688Z,4.80
2018-12-24T06:19:24.518Z,4.80
2018-12-24T06:22:04.594Z,4.80
2018-12-24T06:24:44.629Z,4.80
2018-12-24T06:27:24.679Z,4.70
2018-12-24T06:30:04.750Z,4.70
2018-12-24T06:32:44.631Z,4.70
2018-12-24T06:35:24.540Z,4.60
2018-12-24T06:38:04.583Z,4.60
2018-12-24T06:40:46.707Z,4.60
2018-12-24T06:43:26.622Z,4.50
2018-12-24T06:46:06.558Z,4.50
2018-12-24T06:48:46.346Z,4.50
2018-12-24T06:51:26.377Z,4.50
2018-12-24T06:54:06.553Z,4.50
2018-12-24T06:56:46.531Z,4.40
2018-12-24T06:59:28.499Z,4.40
2018-12-24T07:02:08.265Z,4.30
2018-12-24T07:04:50.330Z,4.30
2018-12-24T07:07:32.733Z,4.30
2018-12-24T07:10:14.596Z,4.30
2018-12-24T07:12:54.591Z,4.20
2018-12-24T07:15:36.728Z,4.20
2018-12-24T07:18:15.892Z,4.30
2018-12-24T07:20:55.916Z,4.20
2018-12-24T07:23:35.921Z,4.20
2018-12-24T07:26:16.069Z,4.10
2018-12-24T07:28:59.199Z,4.10
2018-12-24T07:31:59.456Z,4.10
2018-12-24T07:34:41.442Z,4.10
2018-12-24T07:37:23.457Z,4.10
2018-12-24T07:40:03.344Z,4.00
2018-12-24T07:42:43.333Z,4.00
2018-12-24T07:45:25.303Z,4.10
2018-12-24T07:48:05.066Z,4.10
2018-12-24T07:50:45.398Z,4.10
2018-12-24T07:53:25.009Z,4.10
2018-12-24T07:56:04.980Z,4.10
2018-12-24T07:58:45.029Z,4.00
2018-12-24T08:01:26.961Z,4.00
2018-12-24T08:04:07.046Z,4.00
2018-12-24T08:06:46.377Z,4.10
2018-12-24T08:09:26.384Z,4.00
2018-12-24T08:12:06.444Z,4.00
2018-12-24T08:14:46.395Z,3.90
2018-12-24T08:17:28.394Z,3.90
2018-12-24T08:20:10.395Z,3.80
2018-12-24T08:22:50.557Z,3.80
2018-12-24T08:25:30.456Z,3.70
2018-12-24T08:28:10.357Z,3.70
2018-12-24T08:31:10.436Z,3.70
2018-12-24T08:33:50.629Z,3.60
2018-12-24T08:36:27.981Z,3.60
2018-12-24T08:39:37.404Z,3.70
2018-12-24T08:42:17.218Z,3.70
2018-12-24T08:44:57.186Z,3.70
2018-12-24T08:47:39.132Z,3.70
2018-12-24T08:50:19.047Z,3.70
2018-12-24T08:52:58.994Z,3.70
2018-12-24T08:55:39.102Z,3.70
2018-12-24T08:58:21.098Z,3.60
2018-12-24T09:01:03.231Z,3.60
2018-12-24T09:03:45.488Z,3.70
2018-12-24T09:06:28.064Z,3.70
2018-12-24T09:09:08.223Z,3.90
2018-12-24T09:12:07.638Z,3.90
2018-12-24T09:14:50.361Z,4.00
2018-12-24T09:17:31.862Z,4.00
2018-12-24T09:20:14.011Z,4.00
2018-12-24T09:22:53.794Z,3.90
2018-12-24T09:25:35.929Z,4.00
2018-12-24T09:28:17.839Z,4.00
2018-12-24T09:30:57.061Z,4.00
2018-12-24T09:33:37.223Z,4.00
2018-12-24T09:36:17.485Z,4.00
2018-12-24T09:38:57.360Z,4.00
2018-12-24T09:41:37.373Z,4.00
2018-12-24T09:44:19.589Z,4.00
2018-12-24T09:47:19.399Z,4.00
2018-12-24T09:49:59.389Z,4.00
2018-12-24T09:52:39.542Z,4.10
2018-12-24T09:55:22.315Z,4.10
2018-12-24T09:58:02.240Z,4.10
2018-12-24T10:00:42.489Z,4.10
2018-12-24T10:03:22.254Z,4.10
2018-12-24T10:06:02.067Z,4.10
2018-12-24T10:08:43.955Z,4.10
2018-12-24T10:11:23.818Z,4.10
2018-12-24T10:14:23.978Z,4.10
2018-12-24T10:17:05.849Z,4.10
2018-12-24T10:19:45.778Z,4.10
2018-12-24T10:22:25.719Z,4.10
2018-12-24T10:25:25.022Z,4.10
2018-12-24T10:28:06.944Z,4.20
2018-12-24T10:30:48.910Z,4.20
2018-12-24T10:33:29.192Z,4.20
2018-12-24T10:36:09.114Z,4.20
2018-12-24T10:38:48.897Z,4.20
2018-12-24T10:41:31.096Z,4.20
2018-12-24T10:44:13.001Z,4.30
2018-12-24T10:46:52.942Z,4.30
2018-12-24T10:49:32.155Z,4.30
2018-12-24T10:52:12.204Z,4.40
2018-12-24T10:54:52.228Z,4.40
2018-12-24T10:57:34.265Z,4.40
2018-12-24T11:00:16.279Z,4.40
2018-12-24T11:02:56.238Z,4.50
2018-12-24T11:05:36.169Z,4.50
2018-12-24T11:08:16.490Z,4.50
2018-12-24T11:10:56.346Z,4.50
2018-12-24T11:13:56.477Z,4.60
2018-12-24T11:16:38.357Z,4.60
2018-12-24T11:19:18.372Z,4.60
2018-12-24T11:21:58.361Z,4.70
2018-12-24T11:24:40.539Z,4.80
2018-12-24T11:27:22.493Z,4.80
2018-12-24T11:30:02.412Z,4.80
2018-12-24T11:32:42.566Z,4.80
2018-12-24T11:35:22.539Z,4.80
2018-12-24T11:38:02.749Z,4.80
2018-12-24T11:40:42.609Z,4.80
2018-12-24T11:43:24.492Z,4.80
2018-12-24T11:46:04.532Z,4.90
2018-12-24T11:48:44.673Z,4.90
2018-12-24T11:51:24.517Z,5.00
2018-12-24T11:54:06.474Z,5.00
2018-12-24T11:56:46.235Z,5.10
2018-12-24T11:59:25.954Z,5.10
2018-12-24T12:02:09.944Z,5.10
2018-12-24T12:04:47.597Z,5.10
2018-12-24T12:07:29.453Z,5.20
2018-12-24T12:10:09.331Z,5.20
2018-12-24T12:12:48.628Z,5.30
2018-12-24T12:15:30.614Z,5.30
2018-12-24T12:18:12.809Z,5.30
2018-12-24T12:20:54.793Z,5.40
2018-12-24T12:23:34.877Z,5.30
2018-12-24T12:26:14.696Z,5.40
2018-12-24T12:28:56.745Z,5.40
2018-12-24T12:31:38.692Z,5.30
2018-12-24T12:34:17.888Z,5.40
2018-12-24T12:37:02.046Z,5.40
2018-12-24T12:39:42.018Z,5.40
2018-12-24T12:42:22.151Z,5.40
2018-12-24T12:45:21.314Z,5.40
2018-12-24T12:48:21.447Z,5.50
2018-12-24T12:51:20.824Z,5.50
2018-12-24T12:54:20.111Z,5.60
2018-12-24T12:57:19.490Z,5.60
2018-12-24T13:00:18.686Z,5.60
2018-12-24T13:03:18.055Z,5.60
2018-12-24T13:06:17.421Z,5.60
2018-12-24T13:09:19.969Z,5.70
2018-12-24T13:12:19.343Z,5.80
2018-12-24T13:15:18.647Z,5.90
2018-12-24T13:18:17.920Z,6.00
2018-12-24T13:21:17.286Z,6.00
2018-12-24T13:24:16.522Z,6.00
2018-12-24T13:27:15.588Z,6.10
2018-12-24T13:30:01.651Z,6.10
2018-12-24T13:33:14.358Z,6.10
2018-12-24T13:36:13.756Z,6.10
2018-12-24T13:39:13.010Z,6.10
2018-12-24T13:42:12.345Z,6.20
2018-12-24T13:45:11.795Z,6.10
2018-12-24T13:48:11.040Z,6.20
2018-12-24T13:51:33.552Z,6.20
2018-12-24T13:54:33.021Z,6.20
2018-12-24T13:57:32.327Z,6.20
2018-12-24T14:00:31.685Z,6.10
2018-12-24T14:03:17.782Z,6.10
2018-12-24T14:06:23.705Z,6.10
2018-12-24T14:09:21.043Z,6.10
2018-12-24T14:12:29.976Z,6.10
2018-12-24T14:15:29.259Z,6.10
2018-12-24T14:18:28.459Z,6.10
2018-12-24T14:21:27.806Z,6.20
2018-12-24T14:24:27.190Z,6.20
2018-12-24T14:27:26.706Z,6.30
2018-12-24T14:30:46.233Z,6.20
2018-12-24T14:33:45.712Z,6.20
2018-12-24T14:36:45.104Z,6.20
2018-12-24T14:39:44.368Z,6.10
2018-12-24T14:42:43.497Z,6.10
2018-12-24T14:45:42.966Z,6.10
2018-12-24T14:49:02.681Z,6.10
2018-12-24T14:52:02.141Z,6.10
2018-12-24T14:55:21.847Z,6.10
2018-12-24T14:58:20.981Z,6.10
2018-12-24T15:01:20.579Z,6.00
2018-12-24T15:04:19.872Z,6.00
2018-12-24T15:07:22.072Z,6.10
2018-12-24T15:10:23.641Z,6.00
2018-12-24T15:13:46.281Z,6.10
2018-12-24T15:16:45.585Z,6.10
2018-12-24T15:19:47.776Z,6.10
2018-12-24T15:22:50.037Z,6.10
2018-12-24T15:25:52.465Z,6.10
2018-12-24T15:28:54.731Z,6.10
2018-12-24T15:31:56.320Z,6.00
2018-12-24T15:34:55.508Z,6.10
2018-12-24T15:37:54.884Z,6.10
2018-12-24T15:40:54.308Z,6.10
2018-12-24T15:43:53.583Z,6.00
2018-12-24T15:46:52.871Z,6.00
2018-12-24T15:49:52.061Z,6.00
2018-12-24T15:52:51.588Z,6.00
2018-12-24T15:55:50.893Z,6.00
2018-12-24T15:58:50.178Z,6.00
2018-12-24T16:01:51.727Z,6.00
2018-12-24T16:05:14.315Z,6.00
2018-12-24T16:08:13.601Z,5.90
2018-12-24T16:11:12.870Z,5.90
2018-12-24T16:14:12.180Z,5.90
2018-12-24T16:17:11.757Z,5.90
2018-12-24T16:20:35.129Z,5.90
2018-12-24T16:23:54.596Z,5.80
2018-12-24T16:26:54.214Z,5.80
2018-12-24T16:29:53.442Z,5.80
2018-12-24T16:32:52.723Z,5.70
2018-12-24T16:35:51.964Z,5.70
2018-12-24T16:38:51.378Z,5.70
2018-12-24T16:41:53.795Z,5.70
2018-12-24T16:45:13.220Z,5.70
2018-12-24T16:48:12.637Z,5.70
2018-12-24T16:51:12.027Z,5.70
2018-12-24T16:54:11.434Z,5.70
2018-12-24T16:57:10.785Z,5.70
2018-12-24T17:00:10.505Z,5.70
2018-12-24T17:03:09.501Z,5.80
2018-12-24T17:06:08.892Z,5.80
2018-12-24T17:09:08.457Z,5.80
2018-12-24T17:12:10.730Z,5.70
2018-12-24T17:15:30.194Z,5.70
2018-12-24T17:18:29.234Z,5.70
2018-12-24T17:21:31.555Z,5.70
2018-12-24T17:24:51.092Z,5.70
2018-12-24T17:27:50.296Z,5.70
2018-12-24T17:30:49.605Z,5.70
2018-12-24T17:33:48.838Z,5.80
2018-12-24T17:36:48.273Z,5.80
2018-12-24T17:39:47.395Z,5.70
2018-12-24T17:42:46.797Z,5.80
2018-12-24T17:45:46.046Z,5.80
2018-12-24T17:48:45.193Z,5.90
2018-12-24T17:51:44.622Z,5.90
2018-12-24T17:54:43.975Z,5.90
2018-12-24T17:57:43.377Z,5.90
2018-12-24T18:00:42.661Z,5.80
2018-12-24T18:03:41.936Z,5.90
2018-12-24T18:06:41.267Z,5.90
2018-12-24T18:09:40.839Z,5.90
2018-12-24T18:12:43.164Z,5.80
2018-12-24T18:16:02.759Z,5.80
2018-12-24T18:18:48.846Z,5.90
2018-12-24T18:21:48.185Z,5.90
2018-12-24T18:24:47.519Z,5.80
2018-12-24T18:27:46.657Z,5.80
2018-12-24T18:30:45.896Z,5.80
2018-12-24T18:33:45.386Z,5.80
2018-12-24T18:36:44.701Z,5.70
2018-12-24T18:39:44.033Z,5.70
2018-12-24T18:42:43.481Z,5.70
2018-12-24T18:45:45.841Z,5.70
2018-12-24T18:48:48.216Z,5.70
2018-12-24T18:51:50.618Z,5.70
2018-12-24T18:54:53.049Z,5.70
2018-12-24T18:57:52.284Z,5.70
2018-12-24T19:01:11.717Z,5.70
2018-12-24T19:04:11.197Z,5.80
2018-12-24T19:07:10.597Z,5.80
2018-12-24T19:10:09.789Z,5.80
2018-12-24T19:13:09.214Z,5.80
2018-12-24T19:16:08.594Z,5.70
2018-12-24T19:19:10.972Z,5.70
2018-12-24T19:22:10.479Z,5.70
2018-12-24T19:25:09.902Z,5.70
2018-12-24T19:28:09.249Z,5.80
2018-12-24T19:31:08.457Z,5.70
2018-12-24T19:34:07.794Z,5.70
2018-12-24T19:37:07.114Z,5.70
2018-12-24T19:40:07.405Z,5.70
2018-12-24T19:43:07.006Z,5.70
2018-12-24T19:46:09.650Z,5.70
2018-12-24T19:49:09.004Z,5.70
2018-12-24T19:52:08.196Z,5.70
2018-12-24T19:55:05.452Z,5.80
2018-12-24T19:58:08.714Z,5.80
2018-12-24T20:01:08.158Z,5.80
2018-12-24T20:04:07.801Z,5.70
2018-12-24T20:07:07.298Z,5.70
2018-12-24T20:10:26.706Z,5.70
2018-12-24T20:13:25.967Z,5.70
2018-12-24T20:16:12.082Z,5.70
2018-12-24T20:19:37.992Z,5.70
2018-12-24T20:22:37.195Z,5.70
2018-12-24T20:25:36.531Z,5.70
2018-12-24T20:28:38.966Z,5.70
2018-12-24T20:31:38.216Z,5.70
2018-12-24T20:34:37.543Z,5.70
2018-12-24T20:37:36.688Z,5.70
2018-12-24T20:40:36.390Z,5.70
2018-12-24T20:43:35.828Z,5.70
2018-12-24T20:46:37.982Z,5.70
2018-12-24T20:49:37.465Z,5.70
2018-12-24T20:52:36.932Z,5.70
2018-12-24T20:55:36.381Z,5.60
2018-12-24T20:58:58.839Z,5.60
2018-12-24T21:02:21.368Z,5.50
2018-12-24T21:05:20.788Z,5.50
2018-12-24T21:08:20.340Z,5.50
2018-12-24T21:11:19.609Z,5.50
2018-12-24T21:14:22.336Z,5.50
2018-12-24T21:17:21.318Z,5.50
2018-12-24T21:20:44.597Z,5.50
2018-12-24T21:23:46.880Z,5.60
2018-12-24T21:26:49.400Z,5.60
2018-12-24T21:29:48.610Z,5.50
2018-12-24T21:32:47.856Z,5.50
2018-12-24T21:35:47.249Z,5.50
2018-12-24T21:38:46.650Z,5.50
2018-12-24T21:41:45.966Z,5.50
2018-12-24T21:44:48.162Z,5.50
2018-12-24T21:47:47.433Z,5.50
2018-12-24T21:50:46.723Z,5.50
2018-12-24T21:53:46.394Z,5.50
2018-12-24T21:56:45.631Z,5.50
2018-12-24T22:00:08.322Z,5.50
2018-12-24T22:03:07.769Z,5.50
2018-12-24T22:06:07.248Z,5.40
2018-12-24T22:08:53.309Z,5.40
2018-12-24T22:11:59.248Z,5.30
2018-12-24T22:14:59.186Z,5.30
2018-12-24T22:18:01.393Z,5.20
2018-12-24T22:21:00.816Z,5.20
2018-12-24T22:24:03.335Z,5.20
2018-12-24T22:27:02.829Z,5.10
2018-12-24T22:30:05.337Z,5.20
2018-12-24T22:33:04.638Z,5.20
2018-12-24T22:36:04.325Z,5.20
2018-12-24T22:39:03.976Z,5.20
2018-12-24T22:41:52.605Z,5.20
2018-12-24T22:44:58.527Z,5.20
2018-12-24T22:48:17.992Z,5.20
2018-12-24T22:51:17.231Z,5.20
2018-12-24T22:54:16.582Z,5.20
2018-12-24T22:57:16.071Z,5.20
2018-12-24T23:00:17.361Z,5.20
2018-12-24T23:03:03.427Z,5.10
2018-12-24T23:06:09.372Z,5.10
2018-12-24T23:09:09.204Z,5.00
2018-12-24T23:12:10.816Z,4.90
2018-12-24T23:15:10.451Z,4.90
2018-12-24T23:18:09.741Z,4.90
2018-12-24T23:21:09.155Z,4.90
2018-12-24T23:23:55.238Z,4.80
2018-12-24T23:27:01.162Z,4.90
2018-12-24T23:30:00.865Z,4.90
2018-12-24T23:33:00.405Z,4.90
2018-12-24T23:36:02.804Z,5.00
2018-12-24T23:39:04.746Z,5.00
2018-12-24T23:42:04.097Z,5.00
2018-12-24T23:45:06.120Z,5.00
2018-12-24T23:48:05.561Z,5.00
2018-12-24T23:51:04.889Z,5.00
2018-12-24T23:54:07.159Z,5.10
2018-12-24T23:57:09.305Z,5.10
